sensor_id;sensor_type;location;lat;lon;timestamp;temperature;humidity
66522;SHT31;53349;53.538;8.584;2022-12-07T00:00:52;4.66;85.59
66522;SHT31;53349;53.538;8.584;2022-12-07T00:03:17;4.66;85.57
66522;SHT31;53349;53.538;8.584;2022-12-07T00:05:43;4.66;85.45
66522;SHT31;53349;53.538;8.584;2022-12-07T00:08:08;4.69;85.45
66522;SHT31;53349;53.538;8.584;2022-12-07T00:10:34;4.66;85.38
66522;SHT31;53349;53.538;8.584;2022-12-07T00:12:59;4.66;85.45
66522;SHT31;53349;53.538;8.584;2022-12-07T00:15:24;4.66;85.51
66522;SHT31;53349;53.538;8.584;2022-12-07T00:17:50;4.63;85.56
66522;SHT31;53349;53.538;8.584;2022-12-07T00:20:15;4.64;85.38
66522;SHT31;53349;53.538;8.584;2022-12-07T00:22:41;4.69;85.21
66522;SHT31;53349;53.538;8.584;2022-12-07T00:25:06;4.70;84.98
66522;SHT31;53349;53.538;8.584;2022-12-07T00:27:32;4.70;84.76
66522;SHT31;53349;53.538;8.584;2022-12-07T00:29:57;4.71;84.64
66522;SHT31;53349;53.538;8.584;2022-12-07T00:32:22;4.70;84.53
66522;SHT31;53349;53.538;8.584;2022-12-07T00:34:48;4.69;84.23
66522;SHT31;53349;53.538;8.584;2022-12-07T00:37:13;4.71;84.26
66522;SHT31;53349;53.538;8.584;2022-12-07T00:39:38;4.71;84.31
66522;SHT31;53349;53.538;8.584;2022-12-07T00:42:04;4.70;84.24
66522;SHT31;53349;53.538;8.584;2022-12-07T00:44:29;4.69;84.24
66522;SHT31;53349;53.538;8.584;2022-12-07T00:46:54;4.70;84.28
66522;SHT31;53349;53.538;8.584;2022-12-07T00:49:21;4.70;84.22
66522;SHT31;53349;53.538;8.584;2022-12-07T00:51:48;4.66;84.08
66522;SHT31;53349;53.538;8.584;2022-12-07T00:54:14;4.66;83.87
66522;SHT31;53349;53.538;8.584;2022-12-07T00:56:39;4.64;83.71
66522;SHT31;53349;53.538;8.584;2022-12-07T00:59:05;4.63;83.37
66522;SHT31;53349;53.538;8.584;2022-12-07T01:01:35;4.60;83.33
66522;SHT31;53349;53.538;8.584;2022-12-07T01:04:02;4.60;83.30
66522;SHT31;53349;53.538;8.584;2022-12-07T01:06:28;4.63;83.29
66522;SHT31;53349;53.538;8.584;2022-12-07T01:08:54;4.63;83.10
66522;SHT31;53349;53.538;8.584;2022-12-07T01:11:23;4.61;83.10
66522;SHT31;53349;53.538;8.584;2022-12-07T01:13:50;4.63;83.18
66522;SHT31;53349;53.538;8.584;2022-12-07T01:16:16;4.66;83.15
66522;SHT31;53349;53.538;8.584;2022-12-07T01:18:46;4.64;83.27
66522;SHT31;53349;53.538;8.584;2022-12-07T01:21:15;4.66;83.38
66522;SHT31;53349;53.538;8.584;2022-12-07T01:23:41;4.64;83.23
66522;SHT31;53349;53.538;8.584;2022-12-07T01:26:09;4.64;83.29
66522;SHT31;53349;53.538;8.584;2022-12-07T01:28:35;4.63;83.31
66522;SHT31;53349;53.538;8.584;2022-12-07T01:31:03;4.61;82.71
66522;SHT31;53349;53.538;8.584;2022-12-07T01:33:32;4.64;82.45
66522;SHT31;53349;53.538;8.584;2022-12-07T01:36:05;4.67;82.29
66522;SHT31;53349;53.538;8.584;2022-12-07T01:38:31;4.67;81.94
66522;SHT31;53349;53.538;8.584;2022-12-07T01:40:58;4.66;81.86
66522;SHT31;53349;53.538;8.584;2022-12-07T01:43:25;4.66;81.77
66522;SHT31;53349;53.538;8.584;2022-12-07T01:45:51;4.64;81.71
66522;SHT31;53349;53.538;8.584;2022-12-07T01:48:20;4.66;81.48
66522;SHT31;53349;53.538;8.584;2022-12-07T01:50:48;4.64;80.99
66522;SHT31;53349;53.538;8.584;2022-12-07T01:53:16;4.67;80.70
66522;SHT31;53349;53.538;8.584;2022-12-07T01:55:45;4.69;80.46
66522;SHT31;53349;53.538;8.584;2022-12-07T01:58:13;4.70;80.37
66522;SHT31;53349;53.538;8.584;2022-12-07T02:00:40;4.69;79.89
66522;SHT31;53349;53.538;8.584;2022-12-07T02:03:11;4.71;79.72
66522;SHT31;53349;53.538;8.584;2022-12-07T02:05:40;4.70;79.72
66522;SHT31;53349;53.538;8.584;2022-12-07T02:08:07;4.71;79.85
66522;SHT31;53349;53.538;8.584;2022-12-07T02:10:33;4.70;79.64
66522;SHT31;53349;53.538;8.584;2022-12-07T02:13:11;4.69;79.36
66522;SHT31;53349;53.538;8.584;2022-12-07T02:15:41;4.73;78.56
66522;SHT31;53349;53.538;8.584;2022-12-07T02:18:17;4.76;78.60
66522;SHT31;53349;53.538;8.584;2022-12-07T02:20:56;4.74;78.58
66522;SHT31;53349;53.538;8.584;2022-12-07T02:23:53;4.76;78.55
66522;SHT31;53349;53.538;8.584;2022-12-07T02:30:06;4.79;78.32
66522;SHT31;53349;53.538;8.584;2022-12-07T02:33:11;4.81;78.29
66522;SHT31;53349;53.538;8.584;2022-12-07T02:35:47;4.85;78.29
66522;SHT31;53349;53.538;8.584;2022-12-07T02:38:19;4.85;78.44
66522;SHT31;53349;53.538;8.584;2022-12-07T02:41:02;4.83;78.76
66522;SHT31;53349;53.538;8.584;2022-12-07T02:43:34;4.79;79.13
66522;SHT31;53349;53.538;8.584;2022-12-07T02:46:04;4.80;79.51
66522;SHT31;53349;53.538;8.584;2022-12-07T02:48:32;4.77;80.01
66522;SHT31;53349;53.538;8.584;2022-12-07T02:50:58;4.81;80.38
66522;SHT31;53349;53.538;8.584;2022-12-07T02:53:40;4.80;80.49
66522;SHT31;53349;53.538;8.584;2022-12-07T03:07:55;4.83;80.26
66522;SHT31;53349;53.538;8.584;2022-12-07T03:16:29;4.73;80.42
66522;SHT31;53349;53.538;8.584;2022-12-07T03:18:59;4.73;80.56
66522;SHT31;53349;53.538;8.584;2022-12-07T03:21:38;4.67;80.63
66522;SHT31;53349;53.538;8.584;2022-12-07T03:24:13;4.61;80.49
66522;SHT31;53349;53.538;8.584;2022-12-07T03:26:43;4.61;80.69
66522;SHT31;53349;53.538;8.584;2022-12-07T03:29:23;4.63;80.79
66522;SHT31;53349;53.538;8.584;2022-12-07T03:31:58;4.63;80.83
66522;SHT31;53349;53.538;8.584;2022-12-07T03:34:34;4.61;80.60
66522;SHT31;53349;53.538;8.584;2022-12-07T03:37:06;4.60;80.61
66522;SHT31;53349;53.538;8.584;2022-12-07T03:39:46;4.61;80.28
66522;SHT31;53349;53.538;8.584;2022-12-07T03:42:15;4.59;79.69
66522;SHT31;53349;53.538;8.584;2022-12-07T03:44:41;4.60;79.76
66522;SHT31;53349;53.538;8.584;2022-12-07T03:47:16;4.60;79.71
66522;SHT31;53349;53.538;8.584;2022-12-07T03:49:51;4.60;79.77
66522;SHT31;53349;53.538;8.584;2022-12-07T03:57:51;4.63;79.79
66522;SHT31;53349;53.538;8.584;2022-12-07T04:00:18;4.63;79.87
66522;SHT31;53349;53.538;8.584;2022-12-07T04:02:44;4.63;80.13
66522;SHT31;53349;53.538;8.584;2022-12-07T04:05:10;4.63;80.22
66522;SHT31;53349;53.538;8.584;2022-12-07T04:07:35;4.61;80.47
66522;SHT31;53349;53.538;8.584;2022-12-07T04:10:01;4.61;80.58
66522;SHT31;53349;53.538;8.584;2022-12-07T04:12:26;4.61;80.76
66522;SHT31;53349;53.538;8.584;2022-12-07T04:14:52;4.61;80.86
66522;SHT31;53349;53.538;8.584;2022-12-07T04:17:17;4.57;81.04
66522;SHT31;53349;53.538;8.584;2022-12-07T04:19:42;4.57;81.26
66522;SHT31;53349;53.538;8.584;2022-12-07T04:22:08;4.59;81.30
66522;SHT31;53349;53.538;8.584;2022-12-07T04:24:34;4.60;81.31
66522;SHT31;53349;53.538;8.584;2022-12-07T04:26:59;4.63;81.37
66522;SHT31;53349;53.538;8.584;2022-12-07T04:29:25;4.61;81.40
66522;SHT31;53349;53.538;8.584;2022-12-07T04:31:51;4.61;81.47
66522;SHT31;53349;53.538;8.584;2022-12-07T04:34:17;4.61;81.59
66522;SHT31;53349;53.538;8.584;2022-12-07T04:36:44;4.59;81.64
66522;SHT31;53349;53.538;8.584;2022-12-07T04:39:25;4.59;81.74
66522;SHT31;53349;53.538;8.584;2022-12-07T04:41:51;4.59;81.77
66522;SHT31;53349;53.538;8.584;2022-12-07T04:44:17;4.59;81.82
66522;SHT31;53349;53.538;8.584;2022-12-07T04:46:43;4.59;81.88
66522;SHT31;53349;53.538;8.584;2022-12-07T04:49:09;4.53;81.94
66522;SHT31;53349;53.538;8.584;2022-12-07T04:51:35;4.57;82.16
66522;SHT31;53349;53.538;8.584;2022-12-07T04:54:01;4.57;82.24
66522;SHT31;53349;53.538;8.584;2022-12-07T04:56:26;4.60;82.18
66522;SHT31;53349;53.538;8.584;2022-12-07T04:58:53;4.57;82.19
66522;SHT31;53349;53.538;8.584;2022-12-07T05:01:20;4.56;81.49
66522;SHT31;53349;53.538;8.584;2022-12-07T05:03:46;4.57;81.63
66522;SHT31;53349;53.538;8.584;2022-12-07T05:06:12;4.60;81.61
66522;SHT31;53349;53.538;8.584;2022-12-07T05:08:38;4.60;81.49
66522;SHT31;53349;53.538;8.584;2022-12-07T05:11:04;4.61;81.46
66522;SHT31;53349;53.538;8.584;2022-12-07T05:13:31;4.61;81.42
66522;SHT31;53349;53.538;8.584;2022-12-07T05:15:56;4.60;81.44
66522;SHT31;53349;53.538;8.584;2022-12-07T05:18:22;4.60;81.48
66522;SHT31;53349;53.538;8.584;2022-12-07T05:20:48;4.63;81.42
66522;SHT31;53349;53.538;8.584;2022-12-07T05:23:14;4.63;81.50
66522;SHT31;53349;53.538;8.584;2022-12-07T05:25:40;4.63;81.35
66522;SHT31;53349;53.538;8.584;2022-12-07T05:28:05;4.63;81.40
66522;SHT31;53349;53.538;8.584;2022-12-07T05:30:31;4.61;81.32
66522;SHT31;53349;53.538;8.584;2022-12-07T05:32:57;4.63;81.16
66522;SHT31;53349;53.538;8.584;2022-12-07T05:35:23;4.66;81.21
66522;SHT31;53349;53.538;8.584;2022-12-07T05:37:48;4.66;81.24
66522;SHT31;53349;53.538;8.584;2022-12-07T05:40:14;4.64;81.22
66522;SHT31;53349;53.538;8.584;2022-12-07T05:42:40;4.67;81.31
66522;SHT31;53349;53.538;8.584;2022-12-07T05:45:07;4.64;81.40
66522;SHT31;53349;53.538;8.584;2022-12-07T05:47:32;4.66;81.43
66522;SHT31;53349;53.538;8.584;2022-12-07T05:49:58;4.67;81.26
66522;SHT31;53349;53.538;8.584;2022-12-07T05:52:23;4.66;81.21
66522;SHT31;53349;53.538;8.584;2022-12-07T05:54:49;4.64;81.13
66522;SHT31;53349;53.538;8.584;2022-12-07T05:57:14;4.63;81.01
66522;SHT31;53349;53.538;8.584;2022-12-07T05:59:39;4.66;81.12
66522;SHT31;53349;53.538;8.584;2022-12-07T06:02:07;4.67;81.17
66522;SHT31;53349;53.538;8.584;2022-12-07T06:04:36;4.64;81.25
66522;SHT31;53349;53.538;8.584;2022-12-07T06:07:02;4.63;81.04
66522;SHT31;53349;53.538;8.584;2022-12-07T06:09:28;4.60;81.08
66522;SHT31;53349;53.538;8.584;2022-12-07T06:11:55;4.60;81.17
66522;SHT31;53349;53.538;8.584;2022-12-07T06:14:39;4.57;81.19
66522;SHT31;53349;53.538;8.584;2022-12-07T06:17:05;4.57;81.18
66522;SHT31;53349;53.538;8.584;2022-12-07T06:19:30;4.59;81.17
66522;SHT31;53349;53.538;8.584;2022-12-07T06:21:56;4.54;81.10
66522;SHT31;53349;53.538;8.584;2022-12-07T06:24:22;4.54;81.14
66522;SHT31;53349;53.538;8.584;2022-12-07T06:26:47;4.53;80.80
66522;SHT31;53349;53.538;8.584;2022-12-07T06:29:13;4.53;80.69
66522;SHT31;53349;53.538;8.584;2022-12-07T06:31:41;4.53;80.41
66522;SHT31;53349;53.538;8.584;2022-12-07T06:34:11;4.52;80.12
66522;SHT31;53349;53.538;8.584;2022-12-07T06:36:37;4.52;79.82
66522;SHT31;53349;53.538;8.584;2022-12-07T06:39:03;4.53;79.66
66522;SHT31;53349;53.538;8.584;2022-12-07T06:41:28;4.52;79.46
66522;SHT31;53349;53.538;8.584;2022-12-07T06:43:54;4.50;79.46
66522;SHT31;53349;53.538;8.584;2022-12-07T06:46:21;4.49;79.34
66522;SHT31;53349;53.538;8.584;2022-12-07T06:48:46;4.49;79.42
66522;SHT31;53349;53.538;8.584;2022-12-07T06:51:12;4.46;79.35
66522;SHT31;53349;53.538;8.584;2022-12-07T06:53:40;4.48;79.28
66522;SHT31;53349;53.538;8.584;2022-12-07T06:56:05;4.46;79.09
66522;SHT31;53349;53.538;8.584;2022-12-07T06:58:31;4.46;79.04
66522;SHT31;53349;53.538;8.584;2022-12-07T07:00:56;4.49;79.18
66522;SHT31;53349;53.538;8.584;2022-12-07T07:03:22;4.46;79.20
66522;SHT31;53349;53.538;8.584;2022-12-07T07:05:48;4.49;79.24
66522;SHT31;53349;53.538;8.584;2022-12-07T07:08:14;4.53;79.22
66522;SHT31;53349;53.538;8.584;2022-12-07T07:10:40;4.52;79.04
66522;SHT31;53349;53.538;8.584;2022-12-07T07:13:06;4.52;79.04
66522;SHT31;53349;53.538;8.584;2022-12-07T07:15:32;4.54;78.74
66522;SHT31;53349;53.538;8.584;2022-12-07T07:17:57;4.54;78.79
66522;SHT31;53349;53.538;8.584;2022-12-07T07:20:23;4.59;78.89
66522;SHT31;53349;53.538;8.584;2022-12-07T07:22:48;4.60;78.94
66522;SHT31;53349;53.538;8.584;2022-12-07T07:25:14;4.61;79.12
66522;SHT31;53349;53.538;8.584;2022-12-07T07:27:40;4.63;79.03
66522;SHT31;53349;53.538;8.584;2022-12-07T07:30:06;4.63;79.05
66522;SHT31;53349;53.538;8.584;2022-12-07T07:32:32;4.63;78.59
66522;SHT31;53349;53.538;8.584;2022-12-07T07:34:57;4.66;78.11
66522;SHT31;53349;53.538;8.584;2022-12-07T07:37:23;4.64;77.48
66522;SHT31;53349;53.538;8.584;2022-12-07T07:39:48;4.67;77.27
66522;SHT31;53349;53.538;8.584;2022-12-07T07:42:14;4.67;77.06
66522;SHT31;53349;53.538;8.584;2022-12-07T07:44:39;4.64;76.13
66522;SHT31;53349;53.538;8.584;2022-12-07T07:47:05;4.67;75.26
66522;SHT31;53349;53.538;8.584;2022-12-07T07:49:30;4.69;75.71
66522;SHT31;53349;53.538;8.584;2022-12-07T07:51:56;4.66;75.80
66522;SHT31;53349;53.538;8.584;2022-12-07T07:54:21;4.66;74.69
66522;SHT31;53349;53.538;8.584;2022-12-07T07:56:46;4.69;74.93
66522;SHT31;53349;53.538;8.584;2022-12-07T07:59:12;4.69;75.09
66522;SHT31;53349;53.538;8.584;2022-12-07T08:01:37;4.69;74.82
66522;SHT31;53349;53.538;8.584;2022-12-07T08:04:02;4.70;74.00
66522;SHT31;53349;53.538;8.584;2022-12-07T08:06:28;4.76;74.39
66522;SHT31;53349;53.538;8.584;2022-12-07T08:08:53;4.74;74.47
66522;SHT31;53349;53.538;8.584;2022-12-07T08:11:19;4.79;74.96
66522;SHT31;53349;53.538;8.584;2022-12-07T08:13:46;4.80;75.92
66522;SHT31;53349;53.538;8.584;2022-12-07T08:16:14;4.84;76.59
66522;SHT31;53349;53.538;8.584;2022-12-07T08:18:40;4.87;77.45
66522;SHT31;53349;53.538;8.584;2022-12-07T08:21:09;4.87;77.65
66522;SHT31;53349;53.538;8.584;2022-12-07T08:23:36;4.88;77.28
66522;SHT31;53349;53.538;8.584;2022-12-07T08:26:05;4.88;77.22
66522;SHT31;53349;53.538;8.584;2022-12-07T08:28:32;4.87;76.92
66522;SHT31;53349;53.538;8.584;2022-12-07T08:31:02;4.90;76.24
66522;SHT31;53349;53.538;8.584;2022-12-07T08:33:28;4.90;75.80
66522;SHT31;53349;53.538;8.584;2022-12-07T08:35:53;4.90;75.07
66522;SHT31;53349;53.538;8.584;2022-12-07T08:38:19;4.92;75.44
66522;SHT31;53349;53.538;8.584;2022-12-07T08:40:44;4.90;75.79
66522;SHT31;53349;53.538;8.584;2022-12-07T08:43:10;4.97;76.28
66522;SHT31;53349;53.538;8.584;2022-12-07T08:45:35;5.00;76.71
66522;SHT31;53349;53.538;8.584;2022-12-07T08:48:08;5.00;76.84
66522;SHT31;53349;53.538;8.584;2022-12-07T08:50:36;5.02;76.79
66522;SHT31;53349;53.538;8.584;2022-12-07T08:53:04;5.02;76.47
66522;SHT31;53349;53.538;8.584;2022-12-07T08:55:31;5.04;76.49
66522;SHT31;53349;53.538;8.584;2022-12-07T08:57:58;5.10;76.68
66522;SHT31;53349;53.538;8.584;2022-12-07T09:00:24;5.11;76.61
66522;SHT31;53349;53.538;8.584;2022-12-07T09:02:51;5.17;76.45
66522;SHT31;53349;53.538;8.584;2022-12-07T09:05:16;5.17;76.29
66522;SHT31;53349;53.538;8.584;2022-12-07T09:07:43;5.15;76.31
66522;SHT31;53349;53.538;8.584;2022-12-07T09:10:10;5.14;75.92
66522;SHT31;53349;53.538;8.584;2022-12-07T09:12:35;5.18;76.08
66522;SHT31;53349;53.538;8.584;2022-12-07T09:15:01;5.17;76.18
66522;SHT31;53349;53.538;8.584;2022-12-07T09:17:26;5.17;76.25
66522;SHT31;53349;53.538;8.584;2022-12-07T09:19:52;5.17;76.08
66522;SHT31;53349;53.538;8.584;2022-12-07T09:22:17;5.18;76.29
66522;SHT31;53349;53.538;8.584;2022-12-07T09:24:43;5.20;76.19
66522;SHT31;53349;53.538;8.584;2022-12-07T09:27:12;5.17;76.20
66522;SHT31;53349;53.538;8.584;2022-12-07T09:29:37;5.12;76.28
66522;SHT31;53349;53.538;8.584;2022-12-07T09:32:03;5.08;76.56
66522;SHT31;53349;53.538;8.584;2022-12-07T09:34:30;5.05;77.25
66522;SHT31;53349;53.538;8.584;2022-12-07T09:36:56;5.02;77.68
66522;SHT31;53349;53.538;8.584;2022-12-07T09:39:22;5.02;78.09
66522;SHT31;53349;53.538;8.584;2022-12-07T09:41:47;5.02;78.38
66522;SHT31;53349;53.538;8.584;2022-12-07T09:44:16;5.04;78.56
66522;SHT31;53349;53.538;8.584;2022-12-07T09:46:43;5.05;78.45
66522;SHT31;53349;53.538;8.584;2022-12-07T09:49:11;5.05;78.53
66522;SHT31;53349;53.538;8.584;2022-12-07T09:51:37;5.07;78.52
66522;SHT31;53349;53.538;8.584;2022-12-07T09:54:03;5.10;78.33
66522;SHT31;53349;53.538;8.584;2022-12-07T09:56:29;5.11;77.78
66522;SHT31;53349;53.538;8.584;2022-12-07T09:59:01;5.15;77.60
66522;SHT31;53349;53.538;8.584;2022-12-07T10:01:30;5.17;77.36
66522;SHT31;53349;53.538;8.584;2022-12-07T10:04:18;5.18;77.31
66522;SHT31;53349;53.538;8.584;2022-12-07T10:06:44;5.21;77.57
66522;SHT31;53349;53.538;8.584;2022-12-07T10:09:16;5.28;77.68
66522;SHT31;53349;53.538;8.584;2022-12-07T10:12:05;5.35;77.67
66522;SHT31;53349;53.538;8.584;2022-12-07T10:14:32;5.45;77.74
66522;SHT31;53349;53.538;8.584;2022-12-07T10:16:59;5.48;77.70
66522;SHT31;53349;53.538;8.584;2022-12-07T10:19:28;5.63;77.96
66522;SHT31;53349;53.538;8.584;2022-12-07T10:22:23;5.85;79.31
66522;SHT31;53349;53.538;8.584;2022-12-07T10:24:48;5.86;78.28
66522;SHT31;53349;53.538;8.584;2022-12-07T10:27:21;5.83;77.97
66522;SHT31;53349;53.538;8.584;2022-12-07T10:29:49;5.82;77.91
66522;SHT31;53349;53.538;8.584;2022-12-07T10:34:41;6.00;77.43
66522;SHT31;53349;53.538;8.584;2022-12-07T10:39:57;6.24;76.60
66522;SHT31;53349;53.538;8.584;2022-12-07T10:42:28;6.37;76.26
66522;SHT31;53349;53.538;8.584;2022-12-07T10:48:05;6.52;76.15
66522;SHT31;53349;53.538;8.584;2022-12-07T10:53:40;6.58;75.52
66522;SHT31;53349;53.538;8.584;2022-12-07T11:01:52;6.54;75.72
66522;SHT31;53349;53.538;8.584;2022-12-07T11:04:43;6.48;76.32
66522;SHT31;53349;53.538;8.584;2022-12-07T11:07:32;6.49;76.29
66522;SHT31;53349;53.538;8.584;2022-12-07T11:18:27;6.58;76.67
66522;SHT31;53349;53.538;8.584;2022-12-07T11:21:19;6.56;76.43
66522;SHT31;53349;53.538;8.584;2022-12-07T11:23:53;6.56;76.37
66522;SHT31;53349;53.538;8.584;2022-12-07T11:31:53;6.45;77.00
66522;SHT31;53349;53.538;8.584;2022-12-07T11:37:21;6.42;78.08
66522;SHT31;53349;53.538;8.584;2022-12-07T11:40:00;6.30;77.02
66522;SHT31;53349;53.538;8.584;2022-12-07T11:42:30;6.24;76.58
66522;SHT31;53349;53.538;8.584;2022-12-07T11:45:16;6.18;76.16
66522;SHT31;53349;53.538;8.584;2022-12-07T11:48:12;6.16;75.62
66522;SHT31;53349;53.538;8.584;2022-12-07T11:50:47;6.14;74.98
66522;SHT31;53349;53.538;8.584;2022-12-07T11:53:26;6.17;74.03
66522;SHT31;53349;53.538;8.584;2022-12-07T11:56:07;6.18;73.50
66522;SHT31;53349;53.538;8.584;2022-12-07T11:59:01;6.25;73.32
66522;SHT31;53349;53.538;8.584;2022-12-07T12:04:22;6.30;71.34
66522;SHT31;53349;53.538;8.584;2022-12-07T12:06:48;6.28;70.87
66522;SHT31;53349;53.538;8.584;2022-12-07T12:09:26;6.28;69.91
66522;SHT31;53349;53.538;8.584;2022-12-07T12:14:43;6.41;69.59
66522;SHT31;53349;53.538;8.584;2022-12-07T12:21:22;6.42;70.32
66522;SHT31;53349;53.538;8.584;2022-12-07T12:23:29;6.48;70.14
66522;SHT31;53349;53.538;8.584;2022-12-07T12:26:05;6.45;70.33
66522;SHT31;53349;53.538;8.584;2022-12-07T12:28:42;6.32;71.50
66522;SHT31;53349;53.538;8.584;2022-12-07T12:31:28;6.04;72.51
66522;SHT31;53349;53.538;8.584;2022-12-07T12:34:01;5.85;73.91
66522;SHT31;53349;53.538;8.584;2022-12-07T12:47:38;5.63;76.08
66522;SHT31;53349;53.538;8.584;2022-12-07T12:50:24;5.63;76.77
66522;SHT31;53349;53.538;8.584;2022-12-07T12:53:02;5.67;77.00
66522;SHT31;53349;53.538;8.584;2022-12-07T12:58:32;5.76;77.61
66522;SHT31;53349;53.538;8.584;2022-12-07T13:03:56;5.82;76.80
66522;SHT31;53349;53.538;8.584;2022-12-07T13:08:54;5.89;75.51
66522;SHT31;53349;53.538;8.584;2022-12-07T13:11:32;5.83;74.54
66522;SHT31;53349;53.538;8.584;2022-12-07T13:15:02;5.76;74.30
66522;SHT31;53349;53.538;8.584;2022-12-07T13:19:58;5.59;73.59
66522;SHT31;53349;53.538;8.584;2022-12-07T13:25:03;5.48;72.86
66522;SHT31;53349;53.538;8.584;2022-12-07T13:27:31;5.48;73.60
66522;SHT31;53349;53.538;8.584;2022-12-07T13:29:58;5.49;74.43
66522;SHT31;53349;53.538;8.584;2022-12-07T13:32:25;5.51;74.27
66522;SHT31;53349;53.538;8.584;2022-12-07T13:34:51;5.52;74.45
66522;SHT31;53349;53.538;8.584;2022-12-07T13:37:29;5.58;74.83
66522;SHT31;53349;53.538;8.584;2022-12-07T13:40:00;5.60;74.99
66522;SHT31;53349;53.538;8.584;2022-12-07T13:42:28;5.62;74.47
66522;SHT31;53349;53.538;8.584;2022-12-07T13:44:55;5.66;74.71
66522;SHT31;53349;53.538;8.584;2022-12-07T13:47:41;5.70;74.56
66522;SHT31;53349;53.538;8.584;2022-12-07T13:50:41;5.76;74.93
66522;SHT31;53349;53.538;8.584;2022-12-07T13:53:11;5.77;74.94
66522;SHT31;53349;53.538;8.584;2022-12-07T13:55:44;5.79;75.00
66522;SHT31;53349;53.538;8.584;2022-12-07T13:58:10;5.77;74.98
66522;SHT31;53349;53.538;8.584;2022-12-07T14:00:36;5.76;74.68
66522;SHT31;53349;53.538;8.584;2022-12-07T14:03:04;5.77;74.76
66522;SHT31;53349;53.538;8.584;2022-12-07T14:05:46;5.77;74.85
66522;SHT31;53349;53.538;8.584;2022-12-07T14:13:35;5.74;74.53
66522;SHT31;53349;53.538;8.584;2022-12-07T14:16:17;5.73;74.17
66522;SHT31;53349;53.538;8.584;2022-12-07T14:18:46;5.69;74.05
66522;SHT31;53349;53.538;8.584;2022-12-07T14:23:39;5.63;74.38
66522;SHT31;53349;53.538;8.584;2022-12-07T14:26:12;5.59;74.65
66522;SHT31;53349;53.538;8.584;2022-12-07T14:28:39;5.58;74.77
66522;SHT31;53349;53.538;8.584;2022-12-07T14:31:12;5.51;74.47
66522;SHT31;53349;53.538;8.584;2022-12-07T14:33:38;5.45;74.76
66522;SHT31;53349;53.538;8.584;2022-12-07T14:36:04;5.42;74.91
66522;SHT31;53349;53.538;8.584;2022-12-07T14:38:29;5.35;75.29
66522;SHT31;53349;53.538;8.584;2022-12-07T14:40:55;5.31;75.46
66522;SHT31;53349;53.538;8.584;2022-12-07T14:43:41;5.34;75.61
66522;SHT31;53349;53.538;8.584;2022-12-07T14:46:06;5.27;76.02
66522;SHT31;53349;53.538;8.584;2022-12-07T14:48:32;5.17;76.55
66522;SHT31;53349;53.538;8.584;2022-12-07T14:50:58;5.14;76.74
66522;SHT31;53349;53.538;8.584;2022-12-07T14:53:29;5.02;76.65
66522;SHT31;53349;53.538;8.584;2022-12-07T14:55:55;4.91;76.45
66522;SHT31;53349;53.538;8.584;2022-12-07T14:58:22;4.67;76.46
66522;SHT31;53349;53.538;8.584;2022-12-07T15:00:47;4.50;76.84
66522;SHT31;53349;53.538;8.584;2022-12-07T15:03:13;4.29;77.78
66522;SHT31;53349;53.538;8.584;2022-12-07T15:05:39;4.16;77.98
66522;SHT31;53349;53.538;8.584;2022-12-07T15:08:05;4.01;78.39
66522;SHT31;53349;53.538;8.584;2022-12-07T15:10:34;3.94;78.97
66522;SHT31;53349;53.538;8.584;2022-12-07T15:13:02;3.87;79.66
66522;SHT31;53349;53.538;8.584;2022-12-07T15:15:47;3.84;79.76
66522;SHT31;53349;53.538;8.584;2022-12-07T15:18:13;3.84;80.03
66522;SHT31;53349;53.538;8.584;2022-12-07T15:20:38;3.84;80.21
66522;SHT31;53349;53.538;8.584;2022-12-07T15:23:04;3.78;80.54
66522;SHT31;53349;53.538;8.584;2022-12-07T15:25:29;3.73;81.06
66522;SHT31;53349;53.538;8.584;2022-12-07T15:27:55;3.67;81.78
66522;SHT31;53349;53.538;8.584;2022-12-07T15:30:20;3.61;81.21
66522;SHT31;53349;53.538;8.584;2022-12-07T15:32:49;3.64;81.36
66522;SHT31;53349;53.538;8.584;2022-12-07T15:35:15;3.63;81.85
66522;SHT31;53349;53.538;8.584;2022-12-07T15:37:40;3.61;81.71
66522;SHT31;53349;53.538;8.584;2022-12-07T15:40:06;3.56;81.60
66522;SHT31;53349;53.538;8.584;2022-12-07T15:42:32;3.53;81.92
66522;SHT31;53349;53.538;8.584;2022-12-07T15:44:57;3.53;82.35
66522;SHT31;53349;53.538;8.584;2022-12-07T15:47:33;3.53;82.64
66522;SHT31;53349;53.538;8.584;2022-12-07T15:50:00;3.54;83.16
66522;SHT31;53349;53.538;8.584;2022-12-07T15:52:25;3.56;83.51
66522;SHT31;53349;53.538;8.584;2022-12-07T15:54:51;3.57;83.59
66522;SHT31;53349;53.538;8.584;2022-12-07T15:57:16;3.58;83.53
66522;SHT31;53349;53.538;8.584;2022-12-07T15:59:42;3.63;83.60
66522;SHT31;53349;53.538;8.584;2022-12-07T16:02:10;3.64;83.76
66522;SHT31;53349;53.538;8.584;2022-12-07T16:04:39;3.63;83.74
66522;SHT31;53349;53.538;8.584;2022-12-07T16:07:04;3.66;84.04
66522;SHT31;53349;53.538;8.584;2022-12-07T16:09:33;3.64;84.35
66522;SHT31;53349;53.538;8.584;2022-12-07T16:11:58;3.58;84.32
66522;SHT31;53349;53.538;8.584;2022-12-07T16:14:24;3.61;84.72
66522;SHT31;53349;53.538;8.584;2022-12-07T16:16:49;3.53;84.13
66522;SHT31;53349;53.538;8.584;2022-12-07T16:19:15;3.48;83.88
66522;SHT31;53349;53.538;8.584;2022-12-07T16:21:40;3.46;83.92
66522;SHT31;53349;53.538;8.584;2022-12-07T16:24:06;3.47;83.96
66522;SHT31;53349;53.538;8.584;2022-12-07T16:26:32;3.39;83.79
66522;SHT31;53349;53.538;8.584;2022-12-07T16:28:58;3.34;83.62
66522;SHT31;53349;53.538;8.584;2022-12-07T16:31:26;3.41;84.02
66522;SHT31;53349;53.538;8.584;2022-12-07T16:33:53;3.36;83.40
66522;SHT31;53349;53.538;8.584;2022-12-07T16:36:20;3.37;83.80
66522;SHT31;53349;53.538;8.584;2022-12-07T16:38:47;3.34;83.70
66522;SHT31;53349;53.538;8.584;2022-12-07T16:41:13;3.29;83.60
66522;SHT31;53349;53.538;8.584;2022-12-07T16:43:39;3.29;83.30
66522;SHT31;53349;53.538;8.584;2022-12-07T16:46:05;3.29;83.36
66522;SHT31;53349;53.538;8.584;2022-12-07T16:48:35;3.27;83.50
66522;SHT31;53349;53.538;8.584;2022-12-07T16:51:06;3.27;83.21
66522;SHT31;53349;53.538;8.584;2022-12-07T16:53:31;3.29;83.52
66522;SHT31;53349;53.538;8.584;2022-12-07T16:55:57;3.26;83.35
66522;SHT31;53349;53.538;8.584;2022-12-07T16:58:25;3.24;83.15
66522;SHT31;53349;53.538;8.584;2022-12-07T17:00:51;3.23;83.25
66522;SHT31;53349;53.538;8.584;2022-12-07T17:03:16;3.26;83.35
66522;SHT31;53349;53.538;8.584;2022-12-07T17:05:43;3.27;83.35
66522;SHT31;53349;53.538;8.584;2022-12-07T17:08:09;3.26;83.18
66522;SHT31;53349;53.538;8.584;2022-12-07T17:10:37;3.26;83.08
66522;SHT31;53349;53.538;8.584;2022-12-07T17:13:04;3.20;82.75
66522;SHT31;53349;53.538;8.584;2022-12-07T17:15:59;3.19;82.70
66522;SHT31;53349;53.538;8.584;2022-12-07T17:18:33;3.17;82.73
66522;SHT31;53349;53.538;8.584;2022-12-07T17:21:08;3.13;82.69
66522;SHT31;53349;53.538;8.584;2022-12-07T17:23:35;3.08;82.81
66522;SHT31;53349;53.538;8.584;2022-12-07T17:26:16;3.02;82.55
66522;SHT31;53349;53.538;8.584;2022-12-07T17:28:42;2.99;82.94
66522;SHT31;53349;53.538;8.584;2022-12-07T17:31:10;2.98;82.96
66522;SHT31;53349;53.538;8.584;2022-12-07T17:33:35;2.98;83.17
66522;SHT31;53349;53.538;8.584;2022-12-07T17:36:12;3.02;83.27
66522;SHT31;53349;53.538;8.584;2022-12-07T17:38:38;3.00;83.24